Time;durP1;ratioP1;P1;durP2;ratioP2;P2;SDS_P1;SDS_P2;PMS_P1;PMS_P2;Temp;Humidity;BMP_temperature;BMP_pressure;BME280_temperature;BME280_humidity;BME280_pressure;Samples;Min_cycle;Max_cycle;Signal;HPM_P1;HPM_P2
2021/06/26 00:00:19;;;;;;;;;;;21.40;72.40;;;;;;5014793;28;1049;-67
2021/06/26 00:02:45;;;;;;;;;;;21.30;72.30;;;;;;5014801;28;1886;-65
2021/06/26 00:05:10;;;;;;;;;;;21.30;72.30;;;;;;4996810;28;1012;-66
2021/06/26 00:07:36;;;;;;;;;;;21.30;72.30;;;;;;5015049;28;1092;-66
2021/06/26 00:10:02;;;;;;;;;;;21.30;72.30;;;;;;5014410;28;1179;-66
2021/06/26 00:12:27;;;;;;;;;;;21.30;72.40;;;;;;4997089;28;1279;-66
2021/06/26 00:14:53;;;;;;;;;;;21.30;72.30;;;;;;5014677;28;1179;-65
2021/06/26 00:17:18;;;;;;;;;;;21.30;72.30;;;;;;5014552;28;1176;-66
2021/06/26 00:19:44;;;;;;;;;;;21.30;72.30;;;;;;4996996;28;1089;-66
2021/06/26 00:22:09;;;;;;;;;;;21.30;72.40;;;;;;5014266;28;1220;-65
2021/06/26 00:24:35;;;;;;;;;;;21.30;72.40;;;;;;5014138;28;1953;-66
2021/06/26 00:27:00;;;;;;;;;;;21.30;72.40;;;;;;4996656;28;1101;-65
2021/06/26 00:29:25;;;;;;;;;;;21.30;72.40;;;;;;4996896;28;1116;-65
2021/06/26 00:31:51;;;;;;;;;;;21.30;72.40;;;;;;5013996;28;1226;-66
2021/06/26 00:34:16;;;;;;;;;;;21.40;72.40;;;;;;5014063;28;1073;-66
2021/06/26 00:36:42;;;;;;;;;;;21.30;72.40;;;;;;5014311;28;1124;-65
2021/06/26 00:39:07;;;;;;;;;;;21.30;72.30;;;;;;5013925;28;1213;-66
2021/06/26 00:41:33;;;;;;;;;;;21.30;72.40;;;;;;5014390;28;1147;-66
2021/06/26 00:43:58;;;;;;;;;;;21.30;72.40;;;;;;5013348;28;1961;-65
2021/06/26 00:46:23;;;;;;;;;;;21.30;72.40;;;;;;5014329;28;1140;-66
2021/06/26 00:48:49;;;;;;;;;;;21.30;72.40;;;;;;5013820;28;1061;-64
2021/06/26 00:51:14;;;;;;;;;;;21.30;72.40;;;;;;5014212;28;1104;-65
2021/06/26 00:53:40;;;;;;;;;;;21.30;72.30;;;;;;5013204;28;1593;-65
2021/06/26 00:56:05;;;;;;;;;;;21.30;72.40;;;;;;5014075;28;1093;-66
2021/06/26 00:58:31;;;;;;;;;;;21.30;72.40;;;;;;5014356;28;1105;-65
2021/06/26 01:00:56;;;;;;;;;;;21.30;72.40;;;;;;5013706;28;1322;-66
2021/06/26 01:03:21;;;;;;;;;;;21.30;72.40;;;;;;5013633;28;1899;-66
2021/06/26 01:05:47;;;;;;;;;;;21.30;72.40;;;;;;5013619;28;1200;-64
2021/06/26 01:08:13;;;;;;;;;;;21.30;72.40;;;;;;5013761;28;1089;-65
2021/06/26 01:10:38;;;;;;;;;;;21.30;72.40;;;;;;5013577;28;1117;-65
2021/06/26 01:13:04;;;;;;;;;;;21.30;72.40;;;;;;5013242;28;1360;-67
2021/06/26 01:15:29;;;;;;;;;;;21.30;72.40;;;;;;4995889;28;1160;-65
2021/06/26 01:17:55;;;;;;;;;;;21.30;72.40;;;;;;5013630;28;1101;-66
2021/06/26 01:20:20;;;;;;;;;;;21.30;72.40;;;;;;5013689;28;1184;-66
2021/06/26 01:22:47;;;;;;;;;;;21.30;72.40;;;;;;5013211;28;1902;-66
2021/06/26 01:25:13;;;;;;;;;;;21.30;72.40;;;;;;5013395;28;986;-66
2021/06/26 01:27:39;;;;;;;;;;;21.30;72.40;;;;;;5013171;28;1057;-66
2021/06/26 01:30:05;;;;;;;;;;;21.30;72.40;;;;;;5013449;28;1121;-66
2021/06/26 01:32:30;;;;;;;;;;;21.30;72.40;;;;;;4995347;28;1298;-66
2021/06/26 01:34:56;;;;;;;;;;;21.30;72.40;;;;;;5012996;28;1357;-66
2021/06/26 01:37:21;;;;;;;;;;;21.30;72.40;;;;;;5013038;28;1121;-66
2021/06/26 01:39:47;;;;;;;;;;;21.30;72.40;;;;;;5013369;28;1188;-65
2021/06/26 01:42:12;;;;;;;;;;;21.30;72.40;;;;;;5013136;28;1267;-66
2021/06/26 01:44:38;;;;;;;;;;;21.40;72.50;;;;;;5012707;28;1906;-66
2021/06/26 01:47:07;;;;;;;;;;;21.30;72.40;;;;;;5012481;28;1258;-66
2021/06/26 01:49:33;;;;;;;;;;;21.30;72.40;;;;;;4995140;28;1244;-66
2021/06/26 01:51:58;;;;;;;;;;;21.30;72.40;;;;;;5013165;28;1360;-66
2021/06/26 01:54:23;;;;;;;;;;;21.30;72.40;;;;;;5012388;28;1239;-67
2021/06/26 01:56:49;;;;;;;;;;;21.30;72.40;;;;;;5013237;28;1021;-65
2021/06/26 01:59:14;;;;;;;;;;;21.30;72.40;;;;;;5012604;28;1236;-65
2021/06/26 02:01:40;;;;;;;;;;;21.30;72.40;;;;;;5012578;28;1174;-65
2021/06/26 02:04:05;;;;;;;;;;;21.30;72.40;;;;;;4994799;28;1903;-64
2021/06/26 02:06:31;;;;;;;;;;;21.30;72.40;;;;;;5012953;28;1242;-65
2021/06/26 02:08:56;;;;;;;;;;;21.30;72.40;;;;;;5012859;28;1129;-65
2021/06/26 02:11:21;;;;;;;;;;;21.30;72.40;;;;;;5012651;28;1125;-65
2021/06/26 02:13:47;;;;;;;;;;;21.30;72.40;;;;;;5034748;22;3664;-71
2021/06/26 02:16:12;;;;;;;;;;;21.30;72.40;;;;;;5011198;28;1356;-70
2021/06/26 02:18:38;;;;;;;;;;;21.30;72.40;;;;;;5012770;28;1722;-70
2021/06/26 02:21:03;;;;;;;;;;;21.30;72.40;;;;;;4994986;28;1180;-70
2021/06/26 02:23:29;;;;;;;;;;;21.30;72.40;;;;;;5002318;28;1974;-70
2021/06/26 02:25:54;;;;;;;;;;;21.30;72.40;;;;;;4975383;28;1360;-70
2021/06/26 02:28:20;;;;;;;;;;;21.30;72.40;;;;;;4974874;28;1389;-71
2021/06/26 02:30:45;;;;;;;;;;;21.30;72.40;;;;;;4985861;28;1249;-70
2021/06/26 02:33:11;;;;;;;;;;;21.30;72.40;;;;;;4972651;28;1576;-69
2021/06/26 02:35:36;;;;;;;;;;;21.30;72.40;;;;;;4985660;28;1253;-70
2021/06/26 02:38:02;;;;;;;;;;;21.30;73.10;;;;;;4987560;28;1381;-70
2021/06/26 02:40:27;;;;;;;;;;;21.30;72.40;;;;;;4983562;28;1190;-71
2021/06/26 02:42:52;;;;;;;;;;;21.30;72.40;;;;;;4984877;28;1970;-70
2021/06/26 02:45:18;;;;;;;;;;;21.30;72.40;;;;;;4973522;28;1202;-71
2021/06/26 02:47:43;;;;;;;;;;;21.30;72.40;;;;;;4974903;28;1316;-71
2021/06/26 02:50:09;;;;;;;;;;;21.30;72.40;;;;;;4975624;28;1378;-70
2021/06/26 02:52:35;;;;;;;;;;;21.30;72.40;;;;;;4992726;28;1366;-70
2021/06/26 02:55:00;;;;;;;;;;;21.30;72.40;;;;;;4974047;28;1209;-70
2021/06/26 02:57:25;;;;;;;;;;;21.30;72.40;;;;;;4991483;28;1224;-70
2021/06/26 02:59:51;;;;;;;;;;;21.30;72.40;;;;;;4989674;28;1505;-70
2021/06/26 03:02:17;;;;;;;;;;;21.30;72.40;;;;;;4994133;28;1293;-70
2021/06/26 03:04:42;;;;;;;;;;;21.30;72.40;;;;;;4995506;28;1894;-70
2021/06/26 03:07:08;;;;;;;;;;;21.30;72.40;;;;;;4996510;28;1050;-70
2021/06/26 03:09:33;;;;;;;;;;;21.30;72.40;;;;;;4996713;28;1159;-70
2021/06/26 03:11:59;;;;;;;;;;;21.30;72.40;;;;;;4996396;28;1129;-70
2021/06/26 03:14:24;;;;;;;;;;;21.30;72.40;;;;;;4995851;28;1219;-69
2021/06/26 03:16:50;;;;;;;;;;;21.30;72.40;;;;;;4961177;28;1236;-70
2021/06/26 03:19:15;;;;;;;;;;;21.30;72.40;;;;;;4970262;28;1154;-70
2021/06/26 03:21:41;;;;;;;;;;;21.30;72.40;;;;;;4978531;28;1149;-70
2021/06/26 03:24:07;;;;;;;;;;;21.30;72.40;;;;;;4995807;28;1906;-70
2021/06/26 03:26:33;;;;;;;;;;;21.30;72.40;;;;;;4995863;28;1129;-70
2021/06/26 03:28:59;;;;;;;;;;;21.30;72.40;;;;;;4995870;28;1149;-70
2021/06/26 03:31:25;;;;;;;;;;;21.30;72.40;;;;;;4978378;28;1134;-70
2021/06/26 03:33:51;;;;;;;;;;;21.30;72.40;;;;;;4996018;28;1178;-70
2021/06/26 03:36:16;;;;;;;;;;;21.30;72.40;;;;;;4978657;28;1122;-70
2021/06/26 03:38:42;;;;;;;;;;;21.30;73.20;;;;;;4995685;28;1129;-70
2021/06/26 03:41:07;;;;;;;;;;;21.30;72.40;;;;;;4978406;28;1153;-70
2021/06/26 03:43:33;;;;;;;;;;;21.30;72.40;;;;;;4995045;28;1906;-70
2021/06/26 03:45:58;;;;;;;;;;;21.30;72.40;;;;;;4995804;28;1109;-70
2021/06/26 03:48:24;;;;;;;;;;;21.30;72.40;;;;;;4978078;28;1138;-70
2021/06/26 03:50:50;;;;;;;;;;;21.30;72.40;;;;;;4995671;28;1149;-70
2021/06/26 03:53:16;;;;;;;;;;;21.30;72.40;;;;;;4995059;28;1257;-70
2021/06/26 03:55:51;;;;;;;;;;;21.30;72.40;;;;;;4994425;28;1137;-70
2021/06/26 03:58:17;;;;;;;;;;;21.30;72.40;;;;;;4995189;28;1070;-70
2021/06/26 04:00:43;;;;;;;;;;;21.30;72.50;;;;;;4978184;28;1122;-70
2021/06/26 04:03:08;;;;;;;;;;;21.30;72.50;;;;;;4995098;28;1907;-70
2021/06/26 04:05:34;;;;;;;;;;;21.30;72.50;;;;;;4995184;28;1137;-70
2021/06/26 04:07:59;;;;;;;;;;;21.30;72.40;;;;;;4995438;28;1070;-70
2021/06/26 04:10:27;;;;;;;;;;;21.30;72.40;;;;;;4994883;28;1046;-70
2021/06/26 04:12:52;;;;;;;;;;;21.30;72.40;;;;;;4994786;28;1377;-70
2021/06/26 04:15:17;;;;;;;;;;;21.30;72.50;;;;;;4977487;28;1113;-70
2021/06/26 04:17:43;;;;;;;;;;;21.30;72.40;;;;;;4995564;28;1113;-70
2021/06/26 04:20:08;;;;;;;;;;;21.30;72.50;;;;;;4994922;28;1196;-71
2021/06/26 04:22:34;;;;;;;;;;;21.30;72.50;;;;;;4977666;28;1272;-70
2021/06/26 04:24:59;;;;;;;;;;;21.30;72.90;;;;;;4992696;28;1985;-70
2021/06/26 04:27:25;;;;;;;;;;;21.30;72.50;;;;;;4995026;28;1129;-70
2021/06/26 04:29:50;;;;;;;;;;;21.30;72.50;;;;;;4995065;28;1070;-70
2021/06/26 04:32:16;;;;;;;;;;;21.30;72.50;;;;;;4966475;28;1307;-70
2021/06/26 04:34:41;;;;;;;;;;;21.30;72.50;;;;;;4975458;28;1134;-71
2021/06/26 04:37:07;;;;;;;;;;;21.30;72.50;;;;;;4993268;28;1470;-70
2021/06/26 04:39:33;;;;;;;;;;;21.30;72.50;;;;;;4994705;28;1116;-70
2021/06/26 04:41:58;;;;;;;;;;;21.30;72.50;;;;;;4994290;28;1081;-70
2021/06/26 04:44:23;;;;;;;;;;;21.30;72.50;;;;;;4976912;28;1968;-70
2021/06/26 04:46:49;;;;;;;;;;;21.30;72.50;;;;;;4994430;28;1061;-70
2021/06/26 04:49:14;;;;;;;;;;;21.30;72.50;;;;;;4977021;28;1359;-70
2021/06/26 04:51:40;;;;;;;;;;;21.30;72.50;;;;;;4994751;28;1069;-71
2021/06/26 04:54:05;;;;;;;;;;;21.30;72.50;;;;;;4993753;28;1333;-70
2021/06/26 04:56:31;;;;;;;;;;;21.30;72.50;;;;;;4994889;28;1168;-71
2021/06/26 04:58:56;;;;;;;;;;;21.30;72.50;;;;;;4993995;28;1177;-70
2021/06/26 05:01:21;;;;;;;;;;;21.30;72.50;;;;;;4994482;28;1116;-70
2021/06/26 05:03:47;;;;;;;;;;;21.30;72.50;;;;;;4993603;28;1966;-70
2021/06/26 05:06:13;;;;;;;;;;;21.30;72.50;;;;;;4993175;28;1129;-70
2021/06/26 05:08:38;;;;;;;;;;;21.30;72.50;;;;;;4993815;28;1136;-70
2021/06/26 05:11:03;;;;;;;;;;;21.30;72.50;;;;;;4994190;28;1113;-70
2021/06/26 05:13:29;;;;;;;;;;;21.30;72.50;;;;;;4993677;28;1269;-70
2021/06/26 05:15:55;;;;;;;;;;;21.30;72.50;;;;;;4976632;28;1059;-71
2021/06/26 05:18:20;;;;;;;;;;;21.30;72.50;;;;;;4993945;28;1058;-70
2021/06/26 05:20:46;;;;;;;;;;;21.30;72.50;;;;;;4975565;28;1086;-70
2021/06/26 05:23:12;;;;;;;;;;;21.30;72.50;;;;;;4993592;28;1969;-70
2021/06/26 05:25:37;;;;;;;;;;;21.30;72.50;;;;;;4976246;28;1086;-71
2021/06/26 05:28:03;;;;;;;;;;;21.30;72.50;;;;;;4993813;28;1085;-70
2021/06/26 05:30:28;;;;;;;;;;;21.30;72.50;;;;;;4993744;28;1065;-70
2021/06/26 05:32:53;;;;;;;;;;;21.30;72.50;;;;;;4975627;28;1307;-71
2021/06/26 05:35:19;;;;;;;;;;;21.30;72.50;;;;;;4993725;28;1066;-70
2021/06/26 05:37:46;;;;;;;;;;;21.30;72.50;;;;;;4993676;28;1188;-70
2021/06/26 05:40:11;;;;;;;;;;;21.30;72.50;;;;;;4993693;28;1165;-70
2021/06/26 05:42:37;;;;;;;;;;;21.30;72.50;;;;;;4993278;28;1299;-70
2021/06/26 05:45:02;;;;;;;;;;;21.30;72.50;;;;;;4993506;28;1962;-70
2021/06/26 05:47:28;;;;;;;;;;;21.30;72.50;;;;;;4975690;28;1117;-70
2021/06/26 05:49:54;;;;;;;;;;;21.30;72.50;;;;;;4993656;28;1066;-70
2021/06/26 05:52:19;;;;;;;;;;;21.30;72.50;;;;;;4991957;28;1283;-70
2021/06/26 05:54:44;;;;;;;;;;;21.30;72.50;;;;;;4993175;28;1090;-70
2021/06/26 05:57:10;;;;;;;;;;;21.30;72.50;;;;;;4993236;28;1157;-70
2021/06/26 05:59:35;;;;;;;;;;;21.30;72.50;;;;;;4993573;28;1125;-70
2021/06/26 06:02:01;;;;;;;;;;;21.30;72.50;;;;;;4993545;28;1125;-71
2021/06/26 06:04:26;;;;;;;;;;;21.30;72.50;;;;;;4992698;28;1990;-71
2021/06/26 06:06:52;;;;;;;;;;;21.30;72.50;;;;;;4992282;28;1137;-70
2021/06/26 06:09:17;;;;;;;;;;;21.30;72.50;;;;;;4993059;28;1081;-70
2021/06/26 06:11:43;;;;;;;;;;;21.30;72.50;;;;;;4975962;28;1105;-71
2021/06/26 06:14:08;;;;;;;;;;;21.30;72.50;;;;;;4992535;28;1252;-70
2021/06/26 06:16:35;;;;;;;;;;;21.30;72.50;;;;;;4993313;28;1153;-70
2021/06/26 06:19:01;;;;;;;;;;;21.30;72.50;;;;;;4992971;28;1062;-70
2021/06/26 06:21:26;;;;;;;;;;;21.30;72.50;;;;;;4992400;28;1157;-70
2021/06/26 06:23:52;;;;;;;;;;;21.30;72.40;;;;;;4992925;28;1972;-70
2021/06/26 06:26:17;;;;;;;;;;;21.30;72.40;;;;;;4992830;28;1125;-71
2021/06/26 06:28:42;;;;;;;;;;;21.30;72.30;;;;;;4993252;28;1129;-70
2021/06/26 06:31:08;;;;;;;;;;;21.30;72.20;;;;;;4986604;28;1821;-69
2021/06/26 06:33:33;;;;;;;;;;;21.30;72.30;;;;;;4991911;28;2283;-69
2021/06/26 06:36:00;;;;;;;;;;;21.30;72.20;;;;;;4978156;28;1370;-69
2021/06/26 06:38:26;;;;;;;;;;;21.30;72.20;;;;;;4997467;28;1168;-69
2021/06/26 06:40:51;;;;;;;;;;;21.30;72.10;;;;;;4996369;28;1125;-69
2021/06/26 06:43:17;;;;;;;;;;;21.30;72.10;;;;;;4996494;28;1903;-67
2021/06/26 06:45:42;;;;;;;;;;;21.30;72.10;;;;;;4996902;28;1070;-67
2021/06/26 06:48:07;;;;;;;;;;;21.30;72.10;;;;;;4996627;28;1144;-66
2021/06/26 06:50:33;;;;;;;;;;;21.30;72.10;;;;;;4996763;28;1148;-68
2021/06/26 06:53:02;;;;;;;;;;;21.30;72.10;;;;;;4996041;28;1351;-69
2021/06/26 06:55:28;;;;;;;;;;;21.30;72.20;;;;;;4979723;28;1200;-69
2021/06/26 06:57:53;;;;;;;;;;;21.30;72.20;;;;;;4996648;28;1120;-69
2021/06/26 07:00:19;;;;;;;;;;;21.30;72.20;;;;;;4996565;28;1015;-69
2021/06/26 07:02:44;;;;;;;;;;;21.30;72.30;;;;;;4978943;28;1295;-69
2021/06/26 07:05:10;;;;;;;;;;;21.30;72.30;;;;;;4996347;28;1899;-68
2021/06/26 07:07:35;;;;;;;;;;;21.30;72.30;;;;;;4994953;28;1245;-69
2021/06/26 07:10:01;;;;;;;;;;;21.30;72.30;;;;;;4978792;28;1168;-68
2021/06/26 07:12:26;;;;;;;;;;;21.30;72.30;;;;;;4996449;28;1291;-69
2021/06/26 07:14:52;;;;;;;;;;;21.30;72.40;;;;;;4995576;28;1082;-69
2021/06/26 07:17:17;;;;;;;;;;;21.30;72.40;;;;;;4996442;28;1136;-69
2021/06/26 07:19:43;;;;;;;;;;;21.30;72.40;;;;;;4996233;28;1041;-69
2021/06/26 07:22:08;;;;;;;;;;;21.30;72.30;;;;;;4996351;28;1026;-69
2021/06/26 07:24:34;;;;;;;;;;;21.30;72.40;;;;;;4991816;28;1968;-69
2021/06/26 07:26:59;;;;;;;;;;;21.30;72.40;;;;;;4993195;28;1880;-69
2021/06/26 07:29:24;;;;;;;;;;;21.30;72.30;;;;;;4995523;28;1026;-69
2021/06/26 07:31:50;;;;;;;;;;;21.30;72.30;;;;;;4978612;28;1175;-69
2021/06/26 07:34:15;;;;;;;;;;;21.30;72.30;;;;;;4995525;28;1256;-69
2021/06/26 07:36:41;;;;;;;;;;;21.30;72.30;;;;;;4978569;28;1098;-68
2021/06/26 07:39:06;;;;;;;;;;;21.30;72.30;;;;;;4995617;28;1192;-69
2021/06/26 07:41:32;;;;;;;;;;;21.30;72.30;;;;;;4995860;28;1089;-69
2021/06/26 07:43:57;;;;;;;;;;;21.30;72.30;;;;;;4976958;28;1966;-69
2021/06/26 07:46:23;;;;;;;;;;;21.30;72.40;;;;;;4995632;28;1101;-69
2021/06/26 07:48:48;;;;;;;;;;;21.30;72.40;;;;;;4978342;28;1066;-69
2021/06/26 07:51:13;;;;;;;;;;;21.30;72.30;;;;;;4978133;28;1957;-69
2021/06/26 07:53:39;;;;;;;;;;;21.30;72.30;;;;;;4977650;28;1271;-69
2021/06/26 07:56:04;;;;;;;;;;;21.30;72.30;;;;;;4978156;28;1137;-69
2021/06/26 07:58:30;;;;;;;;;;;21.30;72.30;;;;;;4995630;28;1137;-69
2021/06/26 08:00:56;;;;;;;;;;;21.30;72.30;;;;;;4995639;28;1126;-69
2021/06/26 08:03:22;;;;;;;;;;;21.30;72.30;;;;;;4977494;28;1898;-69
2021/06/26 08:05:47;;;;;;;;;;;21.30;72.30;;;;;;4995528;28;1315;-69
2021/06/26 08:08:13;;;;;;;;;;;21.30;72.30;;;;;;4977778;28;1090;-69
2021/06/26 08:10:38;;;;;;;;;;;21.30;72.30;;;;;;4995358;28;1094;-69
2021/06/26 08:13:04;;;;;;;;;;;21.30;72.30;;;;;;4995323;28;1280;-69
2021/06/26 08:15:29;;;;;;;;;;;21.30;72.30;;;;;;4995641;28;1208;-69
2021/06/26 08:17:55;;;;;;;;;;;21.30;72.30;;;;;;4977675;28;1062;-70
2021/06/26 08:20:21;;;;;;;;;;;21.30;72.30;;;;;;4977812;28;1216;-69
2021/06/26 08:22:46;;;;;;;;;;;21.30;72.30;;;;;;4994572;28;1338;-69
2021/06/26 08:25:12;;;;;;;;;;;21.30;73.00;;;;;;4977381;28;1906;-70
2021/06/26 08:27:37;;;;;;;;;;;21.30;72.30;;;;;;4977715;28;1093;-69
2021/06/26 08:30:03;;;;;;;;;;;21.30;72.30;;;;;;4993289;28;1061;-70
2021/06/26 08:32:28;;;;;;;;;;;21.30;72.30;;;;;;4977557;28;1299;-69
2021/06/26 08:34:53;;;;;;;;;;;21.30;72.30;;;;;;4994235;28;1204;-69
2021/06/26 08:37:19;;;;;;;;;;;21.30;72.30;;;;;;4995017;28;1137;-70
2021/06/26 08:39:44;;;;;;;;;;;21.30;73.00;;;;;;4994490;28;1078;-69
2021/06/26 08:42:10;;;;;;;;;;;21.30;72.30;;;;;;4977487;28;1126;-70
2021/06/26 08:44:35;;;;;;;;;;;21.30;72.30;;;;;;4976615;28;1906;-69
2021/06/26 08:47:01;;;;;;;;;;;21.30;72.30;;;;;;4994638;28;1112;-70
2021/06/26 08:49:26;;;;;;;;;;;21.30;72.30;;;;;;4994380;28;1113;-70
2021/06/26 08:51:52;;;;;;;;;;;21.30;72.30;;;;;;4976856;28;1105;-70
2021/06/26 08:54:18;;;;;;;;;;;21.30;72.30;;;;;;4993969;28;1280;-69
2021/06/26 08:56:44;;;;;;;;;;;21.30;72.30;;;;;;4976534;28;1082;-69
2021/06/26 08:59:09;;;;;;;;;;;21.30;72.30;;;;;;4994421;28;1106;-70
2021/06/26 09:01:35;;;;;;;;;;;21.30;72.30;;;;;;4976889;28;1117;-69
2021/06/26 09:04:04;;;;;;;;;;;21.30;72.30;;;;;;4976560;28;1963;-69
2021/06/26 09:06:33;;;;;;;;;;;21.40;72.30;;;;;;4994023;28;1145;-69
2021/06/26 09:08:58;;;;;;;;;;;21.30;72.20;;;;;;4977190;28;1121;-70
2021/06/26 09:11:25;;;;;;;;;;;21.30;72.30;;;;;;4993916;28;1050;-69
2021/06/26 09:13:50;;;;;;;;;;;21.30;72.20;;;;;;4993806;28;1220;-70
2021/06/26 09:16:16;;;;;;;;;;;21.30;72.30;;;;;;4992870;28;1157;-69
2021/06/26 09:18:42;;;;;;;;;;;21.30;72.20;;;;;;4993845;28;1114;-70
2021/06/26 09:21:36;;;;;;;;;;;21.30;72.30;;;;;;4993952;28;1089;-70
2021/06/26 09:24:04;;;;;;;;;;;21.30;72.20;;;;;;4990838;28;1980;-69
2021/06/26 09:26:30;;;;;;;;;;;21.30;72.30;;;;;;4977279;28;1146;-69
2021/06/26 09:28:55;;;;;;;;;;;21.30;72.20;;;;;;4976187;28;1160;-69
2021/06/26 09:31:21;;;;;;;;;;;21.30;72.20;;;;;;4976609;28;1082;-70
2021/06/26 09:34:00;;;;;;;;;;;21.30;72.20;;;;;;4975777;28;1354;-69
2021/06/26 09:36:26;;;;;;;;;;;21.30;72.30;;;;;;4976637;28;1197;-69
2021/06/26 09:38:59;;;;;;;;;;;21.30;72.20;;;;;;4993556;28;1251;-69
2021/06/26 09:41:25;;;;;;;;;;;21.30;72.20;;;;;;4964150;28;1149;-69
2021/06/26 09:43:50;;;;;;;;;;;21.30;72.20;;;;;;4975557;28;1977;-69
2021/06/26 09:46:16;;;;;;;;;;;21.30;72.30;;;;;;4976142;28;1082;-69
2021/06/26 09:48:48;;;;;;;;;;;21.30;72.20;;;;;;4993257;28;1246;-69
2021/06/26 09:51:17;;;;;;;;;;;21.30;72.20;;;;;;4976322;28;1121;-69
2021/06/26 09:53:50;;;;;;;;;;;21.30;72.20;;;;;;4992952;28;1267;-69
2021/06/26 09:56:16;;;;;;;;;;;21.30;72.20;;;;;;4993494;28;1113;-69
2021/06/26 09:58:48;;;;;;;;;;;21.30;72.20;;;;;;4993334;28;1105;-69
2021/06/26 10:01:13;;;;;;;;;;;21.30;72.20;;;;;;4993377;28;1132;-70
2021/06/26 10:03:39;;;;;;;;;;;21.30;72.20;;;;;;4975608;28;1894;-69
2021/06/26 10:06:04;;;;;;;;;;;21.30;72.10;;;;;;4975653;28;1094;-70
2021/06/26 10:08:30;;;;;;;;;;;21.30;72.20;;;;;;4975638;28;1138;-70
2021/06/26 10:10:56;;;;;;;;;;;21.40;72.20;;;;;;4975895;28;1086;-69
2021/06/26 10:13:22;;;;;;;;;;;21.30;72.20;;;;;;4962254;28;1387;-69
2021/06/26 10:15:47;;;;;;;;;;;21.30;72.20;;;;;;4975843;28;1141;-70
2021/06/26 10:18:13;;;;;;;;;;;21.30;72.20;;;;;;4975815;28;1136;-70
2021/06/26 10:20:38;;;;;;;;;;;21.30;72.20;;;;;;4975715;28;1169;-69
2021/06/26 10:23:04;;;;;;;;;;;21.30;72.10;;;;;;4975581;28;1967;-70
2021/06/26 10:25:33;;;;;;;;;;;21.30;72.20;;;;;;4993076;28;1164;-69
2021/06/26 10:28:06;;;;;;;;;;;21.30;72.10;;;;;;4993020;28;1145;-69
2021/06/26 10:30:31;;;;;;;;;;;21.30;72.10;;;;;;4993317;28;1022;-70
2021/06/26 10:32:58;;;;;;;;;;;21.30;72.20;;;;;;4975332;28;1278;-69
2021/06/26 10:35:24;;;;;;;;;;;21.30;72.10;;;;;;4993213;28;1110;-69
2021/06/26 10:38:03;;;;;;;;;;;21.30;72.20;;;;;;4975648;28;1118;-69
2021/06/26 10:40:38;;;;;;;;;;;21.30;72.10;;;;;;4975612;28;1620;-69
2021/06/26 10:43:17;;;;;;;;;;;21.30;72.10;;;;;;4992568;28;1910;-70
2021/06/26 10:45:42;;;;;;;;;;;21.30;72.10;;;;;;4993085;28;1148;-69
2021/06/26 10:48:15;;;;;;;;;;;21.30;72.10;;;;;;4975460;28;1082;-70
2021/06/26 10:50:44;;;;;;;;;;;21.30;72.10;;;;;;4975459;28;1141;-69
2021/06/26 10:53:10;;;;;;;;;;;21.30;72.20;;;;;;4992640;28;1348;-69
2021/06/26 10:55:36;;;;;;;;;;;21.30;72.10;;;;;;4992977;28;1090;-69
2021/06/26 10:58:02;;;;;;;;;;;21.30;72.10;;;;;;4975653;28;1121;-69
2021/06/26 11:00:32;;;;;;;;;;;21.30;72.20;;;;;;4993049;28;1066;-69
2021/06/26 11:02:58;;;;;;;;;;;21.30;72.10;;;;;;4992548;28;1258;-69
2021/06/26 11:05:27;;;;;;;;;;;21.30;72.10;;;;;;4992554;28;1891;-69
2021/06/26 11:07:53;;;;;;;;;;;21.30;72.10;;;;;;4992998;28;1065;-69
2021/06/26 11:10:18;;;;;;;;;;;21.30;72.10;;;;;;4975125;28;1011;-69
2021/06/26 11:12:45;;;;;;;;;;;21.30;72.10;;;;;;4992800;28;1206;-70
2021/06/26 11:15:11;;;;;;;;;;;21.30;72.10;;;;;;4958940;28;1281;-69
2021/06/26 11:17:37;;;;;;;;;;;21.30;72.10;;;;;;4975389;28;1149;-69
2021/06/26 11:20:06;;;;;;;;;;;21.30;72.10;;;;;;4977255;28;1148;-69
2021/06/26 11:22:32;;;;;;;;;;;21.30;72.10;;;;;;4978979;28;1310;-70
2021/06/26 11:24:57;;;;;;;;;;;21.30;72.10;;;;;;4995605;28;1910;-69
2021/06/26 11:27:22;;;;;;;;;;;21.30;72.00;;;;;;4996293;28;1157;-69
2021/06/26 11:29:49;;;;;;;;;;;21.30;72.10;;;;;;4995381;28;1298;-70
2021/06/26 11:32:20;;;;;;;;;;;21.30;72.10;;;;;;4977491;28;1449;-70
2021/06/26 11:35:06;;;;;;;;;;;21.30;72.10;;;;;;4995600;28;1180;-69
2021/06/26 11:37:39;;;;;;;;;;;21.30;72.80;;;;;;4974125;28;1135;-70
2021/06/26 11:40:13;;;;;;;;;;;21.30;72.10;;;;;;4970815;28;1149;-70
2021/06/26 11:42:42;;;;;;;;;;;21.30;72.10;;;;;;4994096;28;2029;-70
2021/06/26 11:45:14;;;;;;;;;;;21.30;72.10;;;;;;4988493;28;1910;-69
2021/06/26 11:47:39;;;;;;;;;;;21.30;72.10;;;;;;4970054;28;1108;-70
2021/06/26 11:50:11;;;;;;;;;;;21.30;72.10;;;;;;4994503;28;942;-70
2021/06/26 11:52:36;;;;;;;;;;;21.30;72.10;;;;;;4995585;28;1272;-70
2021/06/26 11:55:02;;;;;;;;;;;21.30;72.10;;;;;;4977566;28;887;-70
2021/06/26 11:57:27;;;;;;;;;;;21.40;72.10;;;;;;4994278;28;1137;-70
2021/06/26 11:59:53;;;;;;;;;;;21.30;72.10;;;;;;4977646;28;1034;-70
2021/06/26 12:02:28;;;;;;;;;;;21.30;72.10;;;;;;4994743;28;1269;-70
2021/06/26 12:04:53;;;;;;;;;;;21.30;72.10;;;;;;4994836;28;1898;-70
2021/06/26 12:07:19;;;;;;;;;;;21.30;72.00;;;;;;4994697;28;1145;-70
2021/06/26 12:09:44;;;;;;;;;;;21.30;72.00;;;;;;4995189;28;1128;-70
2021/06/26 12:12:10;;;;;;;;;;;21.30;72.00;;;;;;4977664;28;1157;-70
2021/06/26 12:14:36;;;;;;;;;;;21.30;71.80;;;;;;4995037;28;1182;-70
2021/06/26 12:17:09;;;;;;;;;;;21.30;71.70;;;;;;4995011;28;1184;-69
2021/06/26 12:19:34;;;;;;;;;;;21.30;71.70;;;;;;4995846;28;1141;-70
2021/06/26 12:22:00;;;;;;;;;;;21.30;71.80;;;;;;4995203;28;1204;-69
2021/06/26 12:24:26;;;;;;;;;;;21.30;71.80;;;;;;4976938;28;1919;-69
2021/06/26 12:27:01;;;;;;;;;;;21.30;71.80;;;;;;4995062;28;1117;-70
2021/06/26 12:29:27;;;;;;;;;;;21.30;71.80;;;;;;4994340;28;1072;-70
2021/06/26 12:31:52;;;;;;;;;;;21.30;71.80;;;;;;4995114;28;1242;-70
2021/06/26 12:34:18;;;;;;;;;;;21.30;71.90;;;;;;4994356;28;1211;-70
2021/06/26 12:36:50;;;;;;;;;;;21.30;71.90;;;;;;4994996;28;1081;-70
2021/06/26 12:39:21;;;;;;;;;;;21.30;71.80;;;;;;4994356;28;1141;-70
2021/06/26 12:41:57;;;;;;;;;;;21.30;71.80;;;;;;4995102;28;1113;-71
2021/06/26 12:44:22;;;;;;;;;;;21.30;71.80;;;;;;4994314;28;1894;-70
2021/06/26 12:46:48;;;;;;;;;;;21.30;71.70;;;;;;4994756;28;1113;-71
2021/06/26 12:49:20;;;;;;;;;;;21.30;71.70;;;;;;4993538;28;1536;-71
2021/06/26 12:51:46;;;;;;;;;;;21.30;71.70;;;;;;4977239;28;1180;-72
2021/06/26 12:54:12;;;;;;;;;;;21.30;71.60;;;;;;4993001;28;2051;-71
2021/06/26 12:56:39;;;;;;;;;;;21.30;71.70;;;;;;4973246;28;1328;-71
2021/06/26 12:59:09;;;;;;;;;;;21.30;71.60;;;;;;4977223;28;1164;-71
2021/06/26 13:01:38;;;;;;;;;;;21.30;71.60;;;;;;4994357;28;1018;-72
2021/06/26 13:04:04;;;;;;;;;;;21.40;71.70;;;;;;4976339;28;1957;-72
2021/06/26 13:06:30;;;;;;;;;;;21.30;71.60;;;;;;4994177;28;1148;-71
2021/06/26 13:08:56;;;;;;;;;;;21.30;71.60;;;;;;4976902;28;1122;-71
2021/06/26 13:11:37;;;;;;;;;;;21.30;71.70;;;;;;4994117;28;1153;-71
2021/06/26 13:14:03;;;;;;;;;;;21.30;72.50;;;;;;4976546;28;1181;-70
2021/06/26 13:16:29;;;;;;;;;;;21.30;71.70;;;;;;4993814;28;1160;-71
2021/06/26 13:18:55;;;;;;;;;;;21.30;71.70;;;;;;4994063;28;1105;-71
2021/06/26 13:21:20;;;;;;;;;;;21.30;71.70;;;;;;4976502;28;1098;-71
2021/06/26 13:23:46;;;;;;;;;;;21.30;71.70;;;;;;4993763;28;1914;-71
2021/06/26 13:26:12;;;;;;;;;;;21.30;71.70;;;;;;4994002;28;1514;-71
2021/06/26 13:28:37;;;;;;;;;;;21.30;71.70;;;;;;4993816;28;1105;-72
2021/06/26 13:31:02;;;;;;;;;;;21.30;71.70;;;;;;4993833;28;1073;-71
2021/06/26 13:33:28;;;;;;;;;;;21.30;72.40;;;;;;4976112;28;1221;-71
2021/06/26 13:35:53;;;;;;;;;;;21.30;71.70;;;;;;4993813;28;1073;-72
2021/06/26 13:38:19;;;;;;;;;;;21.40;71.80;;;;;;4993700;28;1070;-72
2021/06/26 13:40:50;;;;;;;;;;;21.30;71.70;;;;;;4993553;28;1148;-71
2021/06/26 13:43:16;;;;;;;;;;;21.30;71.70;;;;;;4992682;28;1899;-71
2021/06/26 13:45:41;;;;;;;;;;;21.30;71.80;;;;;;4976148;28;1169;-71
2021/06/26 13:48:07;;;;;;;;;;;21.30;71.70;;;;;;4993390;28;1070;-71
2021/06/26 13:50:32;;;;;;;;;;;21.30;71.60;;;;;;4993440;28;1125;-70
2021/06/26 13:52:58;;;;;;;;;;;21.30;71.50;;;;;;4975921;28;1256;-72
2021/06/26 13:55:23;;;;;;;;;;;21.30;71.60;;;;;;4975988;28;1141;-71
2021/06/26 13:57:48;;;;;;;;;;;21.30;71.50;;;;;;4993632;28;1073;-71
2021/06/26 14:00:14;;;;;;;;;;;21.30;71.40;;;;;;4975814;28;1066;-71
2021/06/26 14:02:39;;;;;;;;;;;21.30;71.30;;;;;;4993631;28;1216;-71
2021/06/26 14:05:05;;;;;;;;;;;21.30;71.40;;;;;;4992768;28;1956;-71
2021/06/26 14:07:31;;;;;;;;;;;21.30;71.40;;;;;;4993427;28;1113;-70
2021/06/26 14:09:56;;;;;;;;;;;21.30;71.40;;;;;;4993098;28;1117;-72
2021/06/26 14:12:21;;;;;;;;;;;21.30;71.40;;;;;;4993686;28;1255;-71
2021/06/26 14:14:47;;;;;;;;;;;21.30;71.50;;;;;;5020488;23;2041;-65
2021/06/26 14:17:12;;;;;;;;;;;21.30;71.40;;;;;;5006317;28;1021;-66
2021/06/26 14:19:39;;;;;;;;;;;21.30;71.40;;;;;;5012524;28;1124;-66
2021/06/26 14:22:04;;;;;;;;;;;21.30;71.40;;;;;;5013283;28;1121;-66
2021/06/26 14:24:30;;;;;;;;;;;21.30;71.50;;;;;;5012337;28;1918;-66